Time;durP1;ratioP1;P1;durP2;ratioP2;P2;SDS_P1;SDS_P2;PMS_P1;PMS_P2;Temp;Humidity;BMP_temperature;BMP_pressure;BME280_temperature;BME280_humidity;BME280_pressure;Samples;Min_cycle;Max_cycle;Signal;HPM_P1;HPM_P2
2022/02/16 00:00:10;;;;;;;8.00;2.50;;;7.90;97.10;;;;;;5079646;28;21022;-68
2022/02/16 00:02:55;;;;;;;4.67;2.10;;;7.90;97.50;;;;;;5083582;28;20422;-69
2022/02/16 00:05:42;;;;;;;4.93;1.80;;;7.90;97.60;;;;;;5080779;28;20471;-69
2022/02/16 00:08:28;;;;;;;3.40;1.77;;;7.90;97.70;;;;;;5085657;28;21369;-69
2022/02/16 00:11:14;;;;;;;7.43;2.17;;;7.90;98.20;;;;;;5079950;28;20469;-69
2022/02/16 00:13:59;;;;;;;3.00;1.67;;;7.90;98.30;;;;;;5077404;28;20793;-69
2022/02/16 00:16:45;;;;;;;3.77;1.57;;;7.90;98.60;;;;;;5081592;28;20435;-69
2022/02/16 00:19:31;;;;;;;5.37;2.00;;;8.00;98.20;;;;;;5083699;28;20916;-69
2022/02/16 00:22:18;;;;;;;4.83;2.27;;;7.90;98.30;;;;;;5087056;28;20441;-69
2022/02/16 00:25:05;;;;;;;5.30;1.83;;;7.90;98.20;;;;;;5083730;28;20513;-69
2022/02/16 00:27:50;;;;;;;6.23;1.90;;;8.00;98.10;;;;;;5078579;28;20466;-69
2022/02/16 00:30:36;;;;;;;8.10;1.83;;;8.00;98.30;;;;;;5081452;28;20466;-69
2022/02/16 00:33:22;;;;;;;8.83;1.83;;;8.00;98.40;;;;;;5085274;28;20464;-69
2022/02/16 00:36:08;;;;;;;4.13;2.10;;;8.00;98.40;;;;;;5088476;28;20454;-68
2022/02/16 00:38:55;;;;;;;6.97;1.90;;;8.00;98.30;;;;;;5075903;28;20427;-69
2022/02/16 00:41:41;;;;;;;4.83;1.90;;;8.00;98.60;;;;;;5083296;28;20512;-69
2022/02/16 00:44:26;;;;;;;4.50;1.47;;;8.00;98.30;;;;;;5086371;28;20422;-69
2022/02/16 00:47:13;;;;;;;3.30;1.50;;;8.00;98.20;;;;;;5081621;28;20446;-69
2022/02/16 00:49:58;;;;;;;6.30;2.17;;;8.00;98.40;;;;;;5081458;28;20498;-68
2022/02/16 00:52:44;;;;;;;4.30;2.10;;;8.00;98.20;;;;;;5080721;28;21071;-70
2022/02/16 00:55:31;;;;;;;7.00;1.67;;;8.00;98.10;;;;;;5083362;28;20983;-70
2022/02/16 00:58:17;;;;;;;4.33;1.90;;;8.00;98.10;;;;;;5084957;28;20444;-70
2022/02/16 01:01:03;;;;;;;9.90;2.37;;;8.00;98.10;;;;;;5082495;28;20542;-70
2022/02/16 01:03:48;;;;;;;3.90;1.73;;;8.00;98.30;;;;;;5091756;28;20428;-70
2022/02/16 01:06:34;;;;;;;3.13;1.80;;;8.00;98.60;;;;;;5089705;28;20569;-70
2022/02/16 01:09:19;;;;;;;5.73;1.80;;;8.00;98.40;;;;;;5084851;28;21090;-70
2022/02/16 01:12:07;;;;;;;4.13;1.80;;;8.00;98.80;;;;;;5086429;28;20956;-70
2022/02/16 01:14:53;;;;;;;6.93;2.03;;;8.00;98.60;;;;;;5081484;28;20448;-70
2022/02/16 01:17:39;;;;;;;3.73;1.80;;;8.00;98.90;;;;;;5090379;28;20587;-70
2022/02/16 01:20:25;;;;;;;4.87;2.20;;;8.00;98.70;;;;;;5100698;22;20965;-72
2022/02/16 01:23:11;;;;;;;4.83;2.10;;;7.90;99.90;;;;;;5110872;28;20425;-72
2022/02/16 01:25:57;;;;;;;3.67;1.73;;;7.90;99.90;;;;;;5104050;28;20562;-72
2022/02/16 01:28:44;;;;;;;3.67;1.60;;;7.90;99.90;;;;;;5102339;28;20460;-71
2022/02/16 01:31:29;;;;;;;7.73;1.63;;;7.90;99.90;;;;;;5100254;28;20463;-72
2022/02/16 01:34:15;;;;;;;3.60;2.23;;;7.80;99.90;;;;;;5082103;28;20499;-72
2022/02/16 01:37:01;;;;;;;5.93;2.20;;;7.80;99.90;;;;;;5083823;28;21038;-71
2022/02/16 01:39:46;;;;;;;4.33;1.87;;;7.80;99.90;;;;;;5087178;28;20574;-71
2022/02/16 01:42:31;;;;;;;10.83;2.47;;;7.70;99.90;;;;;;5091720;28;20586;-71
2022/02/16 01:45:24;;;;;;;5.47;2.00;;;7.70;99.90;;;;;;5091181;28;20417;-71
2022/02/16 01:48:10;;;;;;;6.33;2.20;;;7.70;99.90;;;;;;5082505;28;20542;-72
2022/02/16 01:50:56;;;;;;;7.70;1.67;;;7.70;99.90;;;;;;5097059;28;20459;-72
2022/02/16 01:53:42;;;;;;;4.67;1.83;;;7.70;99.90;;;;;;5084985;28;20422;-72
2022/02/16 01:56:28;;;;;;;5.00;1.83;;;7.70;99.90;;;;;;5090316;28;20431;-71
2022/02/16 01:59:16;;;;;;;4.33;1.90;;;7.70;99.90;;;;;;5090688;28;20449;-71
2022/02/16 02:02:06;;;;;;;6.40;1.83;;;7.70;99.90;;;;;;5088758;28;20464;-72
2022/02/16 02:04:52;;;;;;;2.60;1.60;;;7.70;99.90;;;;;;5089197;28;20763;-72
2022/02/16 02:07:40;;;;;;;4.33;2.20;;;7.70;99.90;;;;;;5079752;28;20482;-72
2022/02/16 02:10:25;;;;;;;3.93;1.30;;;7.80;99.90;;;;;;5090635;28;20546;-72
2022/02/16 02:13:11;;;;;;;3.20;1.60;;;7.70;99.90;;;;;;5089373;28;20414;-72
2022/02/16 02:15:57;;;;;;;5.47;2.03;;;7.70;99.90;;;;;;5091745;28;21039;-72
2022/02/16 02:18:44;;;;;;;3.60;1.40;;;7.70;99.90;;;;;;5082504;28;20409;-72
2022/02/16 02:21:31;;;;;;;6.33;1.47;;;7.60;99.90;;;;;;5081186;28;20830;-72
2022/02/16 02:24:17;;;;;;;4.80;1.40;;;7.60;99.90;;;;;;5084938;28;21186;-72
2022/02/16 02:27:04;;;;;;;3.40;1.47;;;7.70;99.90;;;;;;5087996;28;20431;-72
2022/02/16 02:29:49;;;;;;;5.00;1.60;;;7.60;99.90;;;;;;5082456;28;20524;-72
2022/02/16 02:32:35;;;;;;;4.63;1.50;;;7.70;99.90;;;;;;5084931;28;20947;-72
2022/02/16 02:35:20;;;;;;;2.53;1.37;;;7.60;99.90;;;;;;5079505;28;20459;-72
2022/02/16 02:38:08;;;;;;;5.20;1.57;;;7.60;99.90;;;;;;5088548;28;20544;-72
2022/02/16 02:40:54;;;;;;;6.43;1.83;;;7.60;99.90;;;;;;5087902;28;20485;-72
2022/02/16 02:43:40;;;;;;;4.67;1.30;;;7.60;99.90;;;;;;5082287;28;20468;-72
2022/02/16 02:46:26;;;;;;;7.30;1.60;;;7.60;99.90;;;;;;5089181;28;20501;-72
2022/02/16 02:49:12;;;;;;;4.80;1.33;;;7.50;99.90;;;;;;5082126;28;20472;-72
2022/02/16 02:51:58;;;;;;;3.27;1.40;;;7.60;99.90;;;;;;5077468;28;20469;-72
2022/02/16 02:54:45;;;;;;;2.27;1.23;;;7.50;99.90;;;;;;5084763;28;20525;-72
2022/02/16 02:57:30;;;;;;;3.40;1.63;;;7.50;99.90;;;;;;5087088;28;21052;-72
2022/02/16 03:00:16;;;;;;;4.50;1.40;;;7.50;99.90;;;;;;5089377;28;20486;-72
2022/02/16 03:03:02;;;;;;;3.17;1.20;;;7.50;99.90;;;;;;5087086;28;20429;-72
2022/02/16 03:05:47;;;;;;;3.37;1.37;;;7.50;99.90;;;;;;5087995;28;20427;-72
2022/02/16 03:08:33;;;;;;;4.40;1.40;;;7.50;99.90;;;;;;5093255;28;20445;-72
2022/02/16 03:11:20;;;;;;;4.10;1.97;;;7.50;99.90;;;;;;5086738;28;20522;-72
2022/02/16 03:14:06;;;;;;;8.40;3.20;;;7.50;99.90;;;;;;5088598;28;21012;-71
2022/02/16 03:16:52;;;;;;;3.20;1.40;;;7.50;99.90;;;;;;5086446;28;20458;-72
2022/02/16 03:19:38;;;;;;;2.80;1.33;;;7.50;99.90;;;;;;5091597;28;20438;-72
2022/02/16 03:22:23;;;;;;;3.50;1.67;;;7.60;99.90;;;;;;5086220;28;20448;-72
2022/02/16 03:25:11;;;;;;;3.17;1.10;;;7.60;99.90;;;;;;5087835;28;20970;-72
2022/02/16 03:27:58;;;;;;;4.20;1.93;;;7.60;99.90;;;;;;5093480;28;20424;-72
2022/02/16 03:30:44;;;;;;;4.60;1.43;;;7.50;99.90;;;;;;5095778;28;20464;-72
2022/02/16 03:33:30;;;;;;;3.53;1.23;;;7.50;99.90;;;;;;5090978;28;20513;-72
2022/02/16 03:36:15;;;;;;;4.23;1.37;;;7.50;99.90;;;;;;5088565;28;20598;-72
2022/02/16 03:39:01;;;;;;;4.07;1.40;;;7.50;99.90;;;;;;5086219;28;20387;-72
2022/02/16 03:41:47;;;;;;;4.30;1.50;;;7.50;99.90;;;;;;5089743;28;20440;-72
2022/02/16 03:44:34;;;;;;;6.87;1.30;;;7.40;99.90;;;;;;5090413;28;20789;-72
2022/02/16 03:47:20;;;;;;;4.17;1.13;;;7.50;99.90;;;;;;5080501;28;20443;-72
2022/02/16 03:50:06;;;;;;;4.33;1.27;;;7.50;99.90;;;;;;5092507;28;20438;-72
2022/02/16 03:52:53;;;;;;;2.87;1.17;;;7.50;99.90;;;;;;5089685;28;20820;-72
2022/02/16 03:55:38;;;;;;;5.63;1.50;;;7.50;99.90;;;;;;5092571;28;20973;-72
2022/02/16 03:58:24;;;;;;;6.20;1.50;;;7.50;99.90;;;;;;5093816;28;20443;-72
2022/02/16 04:01:11;;;;;;;5.30;1.70;;;7.40;99.90;;;;;;5089952;28;20479;-72
2022/02/16 04:03:57;;;;;;;4.67;1.30;;;7.50;99.90;;;;;;5087950;28;20499;-72
2022/02/16 04:06:42;;;;;;;3.70;1.83;;;7.50;99.90;;;;;;5089343;28;20931;-72
2022/02/16 04:09:28;;;;;;;3.57;1.37;;;7.50;99.90;;;;;;5090858;28;20974;-72
2022/02/16 04:12:13;;;;;;;2.90;1.33;;;7.60;99.90;;;;;;5088887;28;20469;-72
2022/02/16 04:14:59;;;;;;;3.20;1.13;;;7.60;99.90;;;;;;5089387;28;21041;-72
2022/02/16 04:17:46;;;;;;;1.80;1.20;;;7.60;99.90;;;;;;5087571;28;21058;-72
2022/02/16 04:20:32;;;;;;;2.60;1.33;;;7.60;99.90;;;;;;5090096;28;20531;-72
2022/02/16 04:23:17;;;;;;;2.90;1.67;;;7.60;99.90;;;;;;5088695;28;20502;-72
2022/02/16 04:26:03;;;;;;;3.60;1.50;;;7.60;99.90;;;;;;5082442;28;21000;-72
2022/02/16 04:28:50;;;;;;;2.90;1.60;;;7.60;99.90;;;;;;5083122;28;20802;-72
2022/02/16 04:31:36;;;;;;;3.77;1.27;;;7.50;99.90;;;;;;5086569;28;21058;-72
2022/02/16 04:34:22;;;;;;;6.50;1.50;;;7.50;99.90;;;;;;5090451;28;20418;-72
2022/02/16 04:37:08;;;;;;;1.57;0.90;;;7.50;99.90;;;;;;5094666;28;21063;-72
2022/02/16 04:39:54;;;;;;;4.20;1.70;;;7.50;99.90;;;;;;5087914;28;20444;-72
2022/02/16 04:42:39;;;;;;;2.53;1.10;;;7.50;99.90;;;;;;5089207;28;20443;-72
2022/02/16 04:45:25;;;;;;;3.67;1.60;;;7.50;99.90;;;;;;5088416;28;20549;-72
2022/02/16 04:48:10;;;;;;;2.60;1.60;;;7.50;99.90;;;;;;5083968;28;20431;-72
2022/02/16 04:50:57;;;;;;;2.13;1.10;;;7.60;99.90;;;;;;5083955;28;20499;-72
2022/02/16 04:53:43;;;;;;;3.53;1.03;;;7.60;99.90;;;;;;5091798;28;20508;-72
2022/02/16 04:56:28;;;;;;;5.80;1.83;;;7.60;99.90;;;;;;5092787;28;20459;-72
2022/02/16 04:59:14;;;;;;;4.33;1.50;;;7.60;99.90;;;;;;5092100;28;20463;-72
2022/02/16 05:02:00;;;;;;;8.40;3.17;;;7.60;99.90;;;;;;5091613;28;20422;-72
2022/02/16 05:04:45;;;;;;;3.63;1.30;;;7.70;99.90;;;;;;5090714;28;20456;-72
2022/02/16 05:07:33;;;;;;;3.70;1.50;;;7.60;99.90;;;;;;5088703;28;20948;-72
2022/02/16 05:10:18;;;;;;;2.80;1.30;;;7.70;99.90;;;;;;5087733;28;20465;-72
2022/02/16 05:13:04;;;;;;;6.83;1.23;;;7.70;99.90;;;;;;5089293;28;20444;-72
2022/02/16 05:15:49;;;;;;;3.13;1.50;;;7.70;99.90;;;;;;5085547;28;20419;-72
2022/02/16 05:18:35;;;;;;;2.60;1.40;;;7.70;99.90;;;;;;5090653;28;20895;-72
2022/02/16 05:21:21;;;;;;;6.70;1.30;;;7.70;99.90;;;;;;5091092;28;20618;-73
2022/02/16 05:24:10;;;;;;;4.13;1.30;;;7.70;99.90;;;;;;5086723;28;20447;-72
2022/02/16 05:26:56;;;;;;;3.00;1.13;;;7.70;99.90;;;;;;5094789;28;20463;-72
2022/02/16 05:29:41;;;;;;;3.87;1.10;;;7.80;99.90;;;;;;5089540;28;20467;-72
2022/02/16 05:32:27;;;;;;;2.50;1.30;;;7.80;99.90;;;;;;5092350;28;20444;-72
2022/02/16 05:35:13;;;;;;;4.90;1.23;;;7.80;99.90;;;;;;5089450;28;20458;-72
2022/02/16 05:37:59;;;;;;;3.93;1.40;;;7.80;99.90;;;;;;5093884;28;20481;-72
2022/02/16 05:40:46;;;;;;;2.77;1.10;;;7.80;99.90;;;;;;5090723;28;20751;-72
2022/02/16 05:43:32;;;;;;;3.23;1.13;;;7.80;99.90;;;;;;5089900;28;20441;-72
2022/02/16 05:46:18;;;;;;;1.57;0.90;;;7.80;99.90;;;;;;5093097;28;20526;-72
2022/02/16 05:49:03;;;;;;;2.33;0.97;;;7.80;99.90;;;;;;5087552;28;20886;-72
2022/02/16 05:51:49;;;;;;;3.80;1.60;;;7.70;99.90;;;;;;5089963;28;20451;-72
2022/02/16 05:54:35;;;;;;;1.50;0.80;;;7.80;99.90;;;;;;5087761;28;20461;-72
2022/02/16 05:57:22;;;;;;;5.10;1.03;;;7.80;99.90;;;;;;5088415;28;20497;-72
2022/02/16 06:00:08;;;;;;;2.00;0.90;;;7.80;99.90;;;;;;5090851;28;20906;-72
2022/02/16 06:02:54;;;;;;;4.87;1.47;;;7.80;99.90;;;;;;5091771;28;20410;-72
2022/02/16 06:05:40;;;;;;;2.20;1.03;;;7.80;99.90;;;;;;5089446;28;20946;-72
2022/02/16 06:08:25;;;;;;;5.53;2.90;;;7.90;99.90;;;;;;5087633;28;20433;-72
2022/02/16 06:11:11;;;;;;;2.73;1.20;;;7.90;99.90;;;;;;5088408;28;20455;-72
2022/02/16 06:13:58;;;;;;;2.00;1.20;;;7.90;99.90;;;;;;5088384;28;20455;-72
2022/02/16 06:16:44;;;;;;;3.00;1.20;;;7.90;99.90;;;;;;5096480;28;20448;-72
2022/02/16 06:19:30;;;;;;;4.70;1.10;;;7.90;99.90;;;;;;5086829;28;20515;-72
2022/02/16 06:22:15;;;;;;;3.57;1.00;;;7.90;99.90;;;;;;5087079;28;21053;-72
2022/02/16 06:25:02;;;;;;;3.63;1.03;;;7.80;99.90;;;;;;5089022;28;20964;-72
2022/02/16 06:27:48;;;;;;;2.43;1.00;;;7.80;99.90;;;;;;5090971;28;20419;-72
2022/02/16 06:30:35;;;;;;;2.00;1.07;;;7.80;99.90;;;;;;5086597;28;20486;-72
2022/02/16 06:33:20;;;;;;;2.20;1.07;;;7.80;99.90;;;;;;5084317;28;20443;-72
2022/02/16 06:36:06;;;;;;;3.70;1.00;;;7.80;99.90;;;;;;5095656;28;20430;-72
2022/02/16 06:38:52;;;;;;;2.10;0.87;;;7.80;99.90;;;;;;5084597;28;20444;-72
2022/02/16 06:41:38;;;;;;;3.10;1.00;;;7.70;99.90;;;;;;5086856;28;20463;-72
2022/02/16 06:44:23;;;;;;;3.77;1.10;;;7.70;99.90;;;;;;5091610;28;20426;-72
2022/02/16 06:47:11;;;;;;;2.57;1.10;;;7.80;99.90;;;;;;5089970;28;20445;-71
2022/02/16 06:49:56;;;;;;;3.43;1.10;;;7.80;99.90;;;;;;5084342;28;20570;-72
2022/02/16 06:52:42;;;;;;;3.53;1.53;;;7.80;99.90;;;;;;5086366;28;20490;-71
2022/02/16 06:55:28;;;;;;;3.60;1.33;;;7.80;99.90;;;;;;5090053;28;21002;-72
2022/02/16 06:58:16;;;;;;;2.20;1.23;;;7.80;99.90;;;;;;5086814;28;20548;-72
2022/02/16 07:01:01;;;;;;;2.73;1.03;;;7.80;99.90;;;;;;5086498;28;20951;-72
2022/02/16 07:03:48;;;;;;;2.70;1.57;;;7.80;99.90;;;;;;5089410;28;20564;-72
2022/02/16 07:06:34;;;;;;;2.13;1.00;;;7.80;99.90;;;;;;5102467;28;20403;-72
2022/02/16 07:09:20;;;;;;;3.40;1.00;;;7.80;99.90;;;;;;5088479;28;20448;-72
2022/02/16 07:12:06;;;;;;;4.00;1.67;;;7.80;99.90;;;;;;5086037;28;20425;-72
2022/02/16 07:14:56;;;;;;;3.10;1.80;;;7.80;99.90;;;;;;5095422;28;20610;-72
2022/02/16 07:17:42;;;;;;;5.60;4.27;;;7.80;99.90;;;;;;5087689;28;20524;-72
2022/02/16 07:20:30;;;;;;;3.23;1.20;;;7.80;99.90;;;;;;5087425;28;20475;-72
2022/02/16 07:23:15;;;;;;;3.03;1.67;;;7.70;99.90;;;;;;5089117;28;20792;-72
2022/02/16 07:26:01;;;;;;;2.20;1.10;;;7.70;99.90;;;;;;5094163;28;20438;-72
2022/02/16 07:28:46;;;;;;;3.57;2.10;;;7.60;99.90;;;;;;5092024;28;20451;-72
2022/02/16 07:31:32;;;;;;;3.43;1.67;;;7.70;99.90;;;;;;5093871;28;20616;-72
2022/02/16 07:34:19;;;;;;;3.07;1.67;;;7.70;99.90;;;;;;5094231;28;20444;-73
2022/02/16 07:37:06;;;;;;;2.87;1.67;;;7.70;99.90;;;;;;5092028;28;20524;-71
2022/02/16 07:39:52;;;;;;;3.50;1.60;;;7.70;99.90;;;;;;5088287;28;20414;-72
2022/02/16 07:42:37;;;;;;;2.80;1.10;;;7.70;99.90;;;;;;5090975;28;20544;-72
2022/02/16 07:45:23;;;;;;;3.40;1.10;;;7.70;99.90;;;;;;5091127;28;20491;-72
2022/02/16 07:48:09;;;;;;;4.03;1.53;;;7.70;99.90;;;;;;5090167;28;20452;-72
2022/02/16 07:50:55;;;;;;;3.57;1.00;;;7.70;99.90;;;;;;5088238;28;20909;-72
2022/02/16 07:53:42;;;;;;;1.90;1.10;;;7.70;99.90;;;;;;5095286;28;20438;-72
2022/02/16 07:56:28;;;;;;;2.73;1.20;;;7.70;99.90;;;;;;5092460;28;20789;-72
2022/02/16 07:59:13;;;;;;;4.03;1.33;;;7.70;99.90;;;;;;5089839;28;20781;-72
2022/02/16 08:01:59;;;;;;;2.57;1.70;;;7.70;99.90;;;;;;5088722;28;20884;-70
2022/02/16 08:04:45;;;;;;;3.30;1.00;;;7.70;99.90;;;;;;5094364;28;20447;-72
2022/02/16 08:07:30;;;;;;;4.03;1.13;;;7.70;99.90;;;;;;5091702;28;20578;-72
2022/02/16 08:10:17;;;;;;;3.10;1.03;;;7.80;99.90;;;;;;5091748;28;20825;-72
2022/02/16 08:13:03;;;;;;;4.83;0.87;;;7.80;99.90;;;;;;5087062;28;20426;-72
2022/02/16 08:15:49;;;;;;;3.90;1.47;;;7.80;99.90;;;;;;5095729;28;20475;-72
2022/02/16 08:18:34;;;;;;;5.33;1.47;;;7.80;99.90;;;;;;5087848;28;20422;-72
2022/02/16 08:21:20;;;;;;;3.20;0.80;;;7.70;99.90;;;;;;5089886;28;20437;-72
2022/02/16 08:24:06;;;;;;;1.37;0.90;;;7.70;99.90;;;;;;5096254;28;20516;-72
2022/02/16 08:26:53;;;;;;;2.37;0.90;;;7.80;99.90;;;;;;5092147;28;20566;-71
2022/02/16 08:29:39;;;;;;;1.67;1.10;;;7.70;99.90;;;;;;5087285;28;20943;-72
2022/02/16 08:32:25;;;;;;;2.50;0.77;;;7.80;99.90;;;;;;5088551;28;20789;-73
2022/02/16 08:35:14;;;;;;;5.40;2.10;;;7.80;99.90;;;;;;5087480;28;20403;-72
2022/02/16 08:37:59;;;;;;;3.03;1.20;;;7.80;99.90;;;;;;5083035;28;20455;-70
2022/02/16 08:40:45;;;;;;;1.87;1.10;;;7.90;99.90;;;;;;5090441;28;20479;-72
2022/02/16 08:43:32;;;;;;;2.60;0.90;;;7.90;99.90;;;;;;5096687;28;20430;-72
2022/02/16 08:46:18;;;;;;;3.73;1.10;;;7.90;99.90;;;;;;5090485;28;20537;-71
2022/02/16 08:49:04;;;;;;;2.73;1.20;;;8.00;99.90;;;;;;5089888;28;20426;-72
2022/02/16 08:51:50;;;;;;;3.63;1.00;;;8.00;99.90;;;;;;5087577;28;20611;-72
2022/02/16 08:54:35;;;;;;;2.10;1.17;;;8.10;99.90;;;;;;5089753;28;20413;-72
2022/02/16 08:57:22;;;;;;;1.90;0.80;;;8.00;99.90;;;;;;5087092;28;20440;-72
2022/02/16 09:00:10;;;;;;;1.70;1.00;;;8.10;99.90;;;;;;5081936;28;20419;-72
2022/02/16 09:02:56;;;;;;;1.80;1.20;;;8.10;99.90;;;;;;5090353;28;20793;-72
2022/02/16 09:05:42;;;;;;;3.50;0.90;;;8.10;99.90;;;;;;5091483;28;20431;-72
2022/02/16 09:08:27;;;;;;;2.57;1.63;;;8.10;99.90;;;;;;5091355;28;20783;-72
2022/02/16 09:11:13;;;;;;;2.10;1.03;;;8.10;99.90;;;;;;5084019;28;20471;-72
2022/02/16 09:13:59;;;;;;;1.70;0.80;;;8.10;99.90;;;;;;5093741;28;20549;-72
2022/02/16 09:16:46;;;;;;;1.30;0.70;;;8.10;99.90;;;;;;5086760;28;20442;-72
2022/02/16 09:19:33;;;;;;;3.43;0.90;;;8.10;99.90;;;;;;5088015;28;20415;-72
2022/02/16 09:22:20;;;;;;;1.80;0.90;;;8.10;99.90;;;;;;5088215;28;20425;-72
2022/02/16 09:25:06;;;;;;;3.83;1.30;;;8.20;99.90;;;;;;5087871;28;20419;-72
2022/02/16 09:27:52;;;;;;;2.53;1.00;;;8.10;99.90;;;;;;5090022;28;20491;-71
2022/02/16 09:30:39;;;;;;;11.87;1.07;;;8.10;99.90;;;;;;5086374;28;20539;-72
2022/02/16 09:33:27;;;;;;;1.80;0.90;;;8.10;99.90;;;;;;5086384;28;20522;-72
2022/02/16 09:36:13;;;;;;;1.60;0.87;;;8.10;99.90;;;;;;5085961;28;20522;-72
2022/02/16 09:38:58;;;;;;;1.50;1.00;;;8.10;99.90;;;;;;5087194;28;20443;-72
2022/02/16 09:41:46;;;;;;;2.37;1.20;;;8.10;99.90;;;;;;5089626;28;20606;-72
2022/02/16 09:44:46;;;;;;;1.43;1.10;;;8.20;99.90;;;;;;5088962;28;20439;-72
2022/02/16 09:47:33;;;;;;;1.60;0.87;;;8.20;99.90;;;;;;5088307;28;20430;-72
2022/02/16 09:50:20;;;;;;;1.93;0.80;;;8.30;99.90;;;;;;5089798;28;20447;-72
2022/02/16 09:53:06;;;;;;;1.63;0.80;;;8.30;99.90;;;;;;5088247;28;20972;-72
2022/02/16 09:55:52;;;;;;;2.77;1.00;;;8.30;99.90;;;;;;5088101;28;20403;-72
2022/02/16 09:58:38;;;;;;;1.90;1.07;;;8.20;99.90;;;;;;5084758;28;20414;-72
2022/02/16 10:01:24;;;;;;;1.30;0.80;;;8.20;99.90;;;;;;5084068;28;20463;-72
2022/02/16 10:04:11;;;;;;;1.60;0.83;;;8.10;99.90;;;;;;5083641;28;20860;-72
2022/02/16 10:06:59;;;;;;;2.10;0.90;;;8.20;99.90;;;;;;5087744;28;20426;-72
2022/02/16 10:09:44;;;;;;;2.50;1.10;;;8.20;99.90;;;;;;5084095;28;20453;-72
2022/02/16 10:12:33;;;;;;;2.20;0.73;;;8.20;99.90;;;;;;5085740;28;20816;-72
2022/02/16 10:15:22;;;;;;;1.60;1.00;;;8.30;99.90;;;;;;5078945;28;20477;-71
2022/02/16 10:18:10;;;;;;;3.00;1.00;;;8.30;99.90;;;;;;5081944;28;20450;-72
2022/02/16 10:21:06;;;;;;;1.50;1.00;;;8.20;99.90;;;;;;5093221;28;20457;-72
2022/02/16 10:23:53;;;;;;;1.90;1.13;;;8.20;99.90;;;;;;5088439;28;20784;-72
2022/02/16 10:26:50;;;;;;;1.40;0.80;;;8.20;99.90;;;;;;5085623;28;21078;-72
2022/02/16 10:29:36;;;;;;;1.73;0.80;;;8.30;99.90;;;;;;5092964;28;21003;-72
2022/02/16 10:32:28;;;;;;;1.73;0.90;;;8.30;99.90;;;;;;5083216;28;20965;-72
2022/02/16 10:35:13;;;;;;;2.53;1.20;;;8.30;99.90;;;;;;5082566;28;20440;-72
2022/02/16 10:38:02;;;;;;;3.83;1.37;;;8.40;99.90;;;;;;5080046;28;20565;-72
2022/02/16 10:41:00;;;;;;;1.60;1.00;;;8.40;99.90;;;;;;5087834;28;20761;-72
2022/02/16 10:43:46;;;;;;;4.77;1.23;;;8.40;99.90;;;;;;5079112;28;21173;-73
2022/02/16 10:46:32;;;;;;;2.30;1.10;;;8.40;99.90;;;;;;5079805;28;20812;-72
2022/02/16 10:49:19;;;;;;;2.43;1.00;;;8.40;99.90;;;;;;5086617;28;20466;-72
2022/02/16 10:52:12;;;;;;;1.73;1.10;;;8.50;99.90;;;;;;5083910;28;20648;-72
2022/02/16 10:54:59;;;;;;;1.30;0.70;;;8.50;99.90;;;;;;5081909;28;20422;-72
2022/02/16 10:57:47;;;;;;;2.30;1.17;;;8.50;99.90;;;;;;5081007;28;20426;-72
2022/02/16 11:00:34;;;;;;;3.60;1.27;;;8.60;99.90;;;;;;5085451;28;20599;-72
2022/02/16 11:03:30;;;;;;;1.90;1.10;;;8.60;99.90;;;;;;5074956;28;20500;-72
2022/02/16 11:06:16;;;;;;;4.07;1.00;;;8.60;99.90;;;;;;5082986;28;20534;-72
2022/02/16 11:09:02;;;;;;;1.83;0.80;;;8.60;99.90;;;;;;5084326;28;20534;-72
2022/02/16 11:11:51;;;;;;;4.80;1.37;;;8.70;99.90;;;;;;5088262;28;20625;-72
2022/02/16 11:14:38;;;;;;;1.73;1.13;;;8.70;99.90;;;;;;5085259;28;20553;-72
2022/02/16 11:17:24;;;;;;;1.93;1.20;;;8.80;99.90;;;;;;5083529;28;20869;-72
2022/02/16 11:20:28;;;;;;;2.73;1.00;;;8.80;99.90;;;;;;5088722;28;20933;-71
2022/02/16 11:23:14;;;;;;;9.23;1.30;;;8.80;99.90;;;;;;5079319;28;20415;-70
2022/02/16 11:25:59;;;;;;;2.10;1.10;;;8.70;99.90;;;;;;5082359;28;20925;-72
2022/02/16 11:28:45;;;;;;;2.03;1.03;;;8.80;99.90;;;;;;5089527;28;20578;-72
2022/02/16 11:31:36;;;;;;;1.73;1.37;;;8.80;99.90;;;;;;5096216;28;20498;-72
2022/02/16 11:34:23;;;;;;;2.00;1.00;;;8.80;99.90;;;;;;5088290;28;20410;-72
2022/02/16 11:37:10;;;;;;;2.00;1.10;;;8.80;99.90;;;;;;5088937;28;20451;-72
2022/02/16 11:40:02;;;;;;;4.67;0.90;;;8.80;99.90;;;;;;5087135;28;20402;-73
2022/02/16 11:42:56;;;;;;;1.40;0.90;;;8.80;99.90;;;;;;5086965;28;20403;-72
2022/02/16 11:45:58;;;;;;;1.43;0.97;;;8.80;99.90;;;;;;5088465;28;20444;-72
2022/02/16 11:48:50;;;;;;;1.60;1.00;;;8.80;99.90;;;;;;5093398;28;20495;-72
2022/02/16 11:51:38;;;;;;;4.40;1.37;;;8.80;99.90;;;;;;5090933;28;20460;-72
2022/02/16 11:54:56;;;;;;;2.37;1.30;;;8.80;99.90;;;;;;5091040;28;20428;-72
2022/02/16 11:57:47;;;;;;;1.90;1.30;;;8.80;99.90;;;;;;5085060;28;20531;-72
2022/02/16 12:00:36;;;;;;;2.03;1.57;;;8.80;99.90;;;;;;5089929;28;20424;-72
2022/02/16 12:03:26;;;;;;;1.80;1.10;;;8.80;99.90;;;;;;5090712;28;20575;-72
2022/02/16 12:06:15;;;;;;;2.00;1.20;;;8.80;99.90;;;;;;5089229;28;20945;-72
2022/02/16 12:09:07;;;;;;;3.30;1.20;;;8.80;99.90;;;;;;5073446;28;20812;-72
2022/02/16 12:12:11;;;;;;;1.40;0.80;;;8.90;99.90;;;;;;5089117;28;20529;-72
2022/02/16 12:14:57;;;;;;;2.70;1.47;;;8.90;99.90;;;;;;5089889;28;20395;-72
2022/02/16 12:17:43;;;;;;;1.70;1.10;;;8.90;99.90;;;;;;5091072;28;21059;-72
2022/02/16 12:20:29;;;;;;;2.57;1.57;;;9.00;99.90;;;;;;5094471;28;20467;-72
2022/02/16 12:23:16;;;;;;;4.77;1.27;;;9.00;99.90;;;;;;5094411;28;20467;-72
2022/02/16 12:26:09;;;;;;;3.00;1.03;;;9.00;99.90;;;;;;5092484;28;20521;-72
2022/02/16 12:28:58;;;;;;;2.13;1.00;;;9.10;99.90;;;;;;5103325;28;20876;-72
2022/02/16 12:31:46;;;;;;;1.70;1.00;;;9.10;99.90;;;;;;5087474;28;20458;-72
2022/02/16 12:34:34;;;;;;;1.80;1.00;;;9.10;99.90;;;;;;5093732;28;20904;-72
2022/02/16 12:37:22;;;;;;;3.60;0.80;;;9.10;99.90;;;;;;5090142;28;20456;-72
2022/02/16 12:40:11;;;;;;;3.30;1.33;;;9.20;99.90;;;;;;5094277;28;21093;-72
2022/02/16 12:42:57;;;;;;;2.23;1.10;;;9.20;99.90;;;;;;5082796;28;21028;-72
2022/02/16 12:45:42;;;;;;;4.10;2.33;;;9.20;99.90;;;;;;5090160;28;20508;-72
2022/02/16 12:48:28;;;;;;;2.93;1.20;;;9.30;99.90;;;;;;5091818;28;20425;-72
2022/02/16 12:51:21;;;;;;;3.40;1.53;;;9.20;99.90;;;;;;5086287;28;20438;-72
2022/02/16 12:54:09;;;;;;;1.90;1.00;;;9.30;99.90;;;;;;5094314;28;20407;-72
2022/02/16 12:56:58;;;;;;;1.70;1.00;;;9.30;99.90;;;;;;5084295;28;21007;-72
2022/02/16 13:02:45;;;;;;;1.53;0.93;;;9.40;99.90;;;;;;5089278;28;20552;-72
2022/02/16 13:05:38;;;;;;;2.07;1.27;;;9.40;99.90;;;;;;5091386;28;20423;-72
2022/02/16 13:08:25;;;;;;;1.87;1.10;;;9.40;99.90;;;;;;5078911;28;21023;-72
2022/02/16 13:11:11;;;;;;;1.67;1.10;;;9.50;99.90;;;;;;5080749;28;20510;-72
2022/02/16 13:14:09;;;;;;;1.40;0.87;;;9.50;99.90;;;;;;5081141;28;20989;-72
2022/02/16 13:16:56;;;;;;;1.87;1.00;;;9.50;99.90;;;;;;5081573;28;20422;-72
2022/02/16 13:19:48;;;;;;;4.03;1.43;;;9.50;99.90;;;;;;5078886;28;20497;-72
2022/02/16 13:22:34;;;;;;;2.93;1.10;;;9.60;99.90;;;;;;5111026;22;20541;-84
2022/02/16 13:25:29;;;;;;;1.43;0.80;;;9.60;99.90;;;;;;5081614;28;21045;-84
2022/02/16 13:28:19;;;;;;;1.87;1.10;;;9.60;99.90;;;;;;5064363;28;20710;-83
2022/02/16 13:31:18;;;;;;;2.00;0.93;;;9.60;99.90;;;;;;5063691;28;20445;-83
2022/02/16 13:34:06;;;;;;;1.50;0.90;;;9.60;99.90;;;;;;5059427;28;20443;-84
2022/02/16 13:36:52;;;;;;;1.87;1.00;;;9.70;99.90;;;;;;5063509;28;20447;-83
2022/02/16 13:39:38;;;;;;;2.30;1.23;;;9.70;99.90;;;;;;5060656;28;20473;-83
2022/02/16 13:42:24;;;;;;;1.90;1.30;;;9.70;99.90;;;;;;5064916;28;20998;-84
2022/02/16 13:45:09;;;;;;;1.60;1.00;;;9.70;99.90;;;;;;5071979;28;20441;-84
2022/02/16 13:47:56;;;;;;;4.23;1.50;;;9.70;99.90;;;;;;5066997;28;20616;-83
2022/02/16 13:50:43;;;;;;;2.00;1.10;;;9.80;99.90;;;;;;5061559;28;20456;-83
2022/02/16 13:53:31;;;;;;;1.70;1.00;;;9.80;99.90;;;;;;5068048;28;20825;-84
2022/02/16 13:56:19;;;;;;;4.60;1.13;;;9.80;99.90;;;;;;5063036;28;20487;-83
2022/02/16 13:59:06;;;;;;;1.73;1.10;;;9.80;99.90;;;;;;5064636;28;20497;-83
2022/02/16 14:02:05;;;;;;;1.57;1.00;;;9.80;99.90;;;;;;5062041;28;20556;-84
2022/02/16 14:04:53;;;;;;;1.40;0.90;;;9.80;99.90;;;;;;5063337;28;20423;-84
2022/02/16 14:07:38;;;;;;;2.00;0.90;;;9.80;99.90;;;;;;5064179;28;20465;-83
2022/02/16 14:10:24;;;;;;;1.60;1.00;;;9.90;99.90;;;;;;5071325;28;20399;-84
2022/02/16 14:13:11;;;;;;;2.10;1.10;;;9.90;99.90;;;;;;5072350;28;20431;-83
2022/02/16 14:15:57;;;;;;;2.40;1.90;;;10.00;99.90;;;;;;5059178;28;20838;-84
2022/02/16 14:19:22;;;;;;;2.27;1.27;;;9.90;99.90;;;;;;5064784;28;20452;-83
2022/02/16 14:21:50;;;;;;;3.30;1.07;;;10.00;99.90;;;;;;5063256;28;20432;-85
2022/02/16 14:24:38;;;;;;;1.70;1.00;;;10.00;99.90;;;;;;5065762;28;20455;-85
2022/02/16 14:27:24;;;;;;;2.23;1.07;;;10.00;99.90;;;;;;5062256;28;20469;-84
2022/02/16 14:30:14;;;;;;;2.20;1.20;;;10.10;99.90;;;;;;5057024;28;20469;-85
2022/02/16 14:33:00;;;;;;;1.90;1.20;;;10.10;99.90;;;;;;5063044;28;20441;-84
2022/02/16 14:35:45;;;;;;;2.38;1.38;;;10.10;99.90;;;;;;5065582;28;22213;-84
2022/02/16 14:38:32;;;;;;;1.60;1.07;;;10.10;99.90;;;;;;5059233;28;20447;-83
2022/02/16 14:41:19;;;;;;;1.97;1.30;;;10.10;99.90;;;;;;5060260;28;20437;-84
2022/02/16 14:44:05;;;;;;;1.77;1.10;;;10.10;99.90;;;;;;5064370;28;20557;-83